Aktualne dane pomiarowe

Uwaga, wersja testowa! Automatyczne pobieranie danych za pomocą narzędzi lub skryptów to umożliwiających jest zabronione.

Dane meteo z obszaru Polski uzyskane na podstawie depesz SYNOP pobieranych co godzinę z NWS. Najedź myszką na symbol przedstawiony w tabeli, aby uzyskać informacje co do jego znaczenia. Prosimy pamiętać, że to testowa wersja strony, która jeszcze nie jest ukończona. Stworzono również jest krótki FAQ dotyczący korzystania z tej podstrony Anomalie temperatury w chwili obecnej odniesione są do okresu referencyjnego 1951-2016. Okres ten będzie później zmieniony na 1981-2010. Kliknij ikonę aby pobrać plik CSV. Kliknij ikonę aby wygenerować mapę synoptyczną dla danego terminu.

Wybierz Datę:    

        

Powidz (12336)

Dane terminowe dla wybranej stacji. Kliknij datę, aby otrzymać dane z tego terminu dla wszystkich stacji.

TemperaturaZachmurzenieWiatrCiśnienieOpadyPogoda
 Data t td wb tx tn tg rh  Nt Nl Cl Cm Ch ws wd g1 g2 wx mslp ppp ch 24h 12h t ww ww w1 w2  
2019-07-10 20:00:00 17.8 5.1 10.9--- 4310.0wxwxwxwx4wx---1012.6 998.8 0.8---------
2019-07-10 19:00:00 18.8 4.6 11.2--- 3910.0wx-wxwx4wx---1012.3 998.6 0.7---------
2019-07-10 18:00:00 20.3 3.6 11.6--- 3310.0wxwxwxwxwx5wx---1011.9 998.2 0.0---------
2019-07-10 17:00:00 21.2 3.0 11.7--- 3010.0wxwxwxwxwx5wx---1011.7 998.0 -0.2---------
2019-07-10 16:00:00 21.6 2.4 11.7--- 2810.0wxwxwxwxwx5wx---1011.5 997.9 -0.6---------
2019-07-10 15:00:00 21.4 2.7 11.7--- 2910.0wxwxwxwx7wx---1011.8 998.2 -0.5---------
2019-07-10 14:00:00 22.1 3.2 12.2--- 2910.0wxwxwxwx6wx---1011.8 998.3 -0.6---------
2019-07-10 13:00:00 22.3 4.6 12.8--- 3210.0wxwxwxwx7wx---1011.9 998.4 -0.9---------
2019-07-10 12:00:00 20.6 5.0 12.2--- 3610.0wxwxwxwx6wx---1012.6 998.6 -0.5---------
2019-07-10 11:00:00 20.5 8.5 13.6--- 4610.0wxwxwx7wx---1012.5 998.8 -0.7---------
2019-07-10 10:00:00 16.5 12.3 13.7--- 7610.0wxwxwx8wx12--1013.0 999.2 -0.3---wx---
2019-07-10 09:00:00 18.0 11.3 13.8--- 6510.0wxwxwx7wx---1012.9 999.1 -0.2---------
2019-07-10 08:00:00 15.7 11.4 12.9--- 7610.0wxwxwx6wx---1013.2 999.4 0.1---------
2019-07-10 07:00:00 15.5 12.6 13.5--- 8310.0wxwxwx7wx---1013.3 999.4 0.3---------
2019-07-10 06:00:00 12.6 11.3 11.7--- 9210.0wxwxwx5wx---1013.3 999.3 -0.1---------
2019-07-10 05:00:00 11.9 10.2 10.7--- 8910.0wxwxwx4wx---1013.3 999.2 -0.2---wx---
2019-07-10 04:00:00 11.5 8.4 9.5--- 8110.0wxwxwxwx4wx---1013.3 999.3 -0.3---------
2019-07-10 03:00:00 11.2 8.2 9.3--- 8210.0wxwxwxwx4wx---1013.4 999.3 -0.5---------
2019-07-10 02:00:00 11.4 8.3 9.4--- 8110.0wx-wx4wx---1013.4 999.3 -0.7---------
2019-07-10 01:00:00 8.8 7.1 7.6--- 8910.0wx-3wx---1013.8 999.5 -0.3---------
2019-07-10 00:00:00 10.7 8.1 9.0--- 8410.0wx-3wx---1013.9 999.8 -0.1---------
2019-07-09 23:00:00 14.1 8.4 10.6--- 6910.0wx-wx5wx---1013.91000.0 0.1---------
2019-07-09 22:00:00 15.0 8.7 11.2--- 6610.0wx-wx3wx---1013.7 999.8 0.2---------
2019-07-09 21:00:00 14.2 9.2 11.1--- 7210.0wx-wx4wx---1013.8 999.9 0.3---------
2019-07-09 20:00:00 15.0 9.2 11.4--- 6810.0wx-wx5wx---1013.7 999.8 0.4---------
2019-07-09 19:00:00 14.9 9.5 11.5--- 7010.0wxwxwx4wx---1013.5 999.6 0.1---------
2019-07-09 18:00:00 16.3 8.8 11.8--- 6110.0wxwxwx6wx---1013.3 999.5 0.8---------
2019-07-09 17:00:00 16.5 9.3 12.1--- 6210.0wxwxwx4wx---1013.2 999.4 1.0---------
2019-07-09 16:00:00 15.6 10.4 12.3--- 7110.0wxwxwxwx6wx---1013.3 999.5 1.1---wx-w1--
2019-07-09 15:00:00 20.5 6.1 12.6--- 3910.0wxwxwxwx7wx12--1012.3 998.7 0.1---wx---
2019-07-09 14:00:00 20.8 6.4 12.8--- 3910.0wxwxwxwx8wx13--1011.9 998.3 -0.6---wx---
2019-07-09 13:00:00 21.0 7.1 13.2--- 4110.0wxwxwxwx9wx14--1012.0 998.4 -1.1---------
2019-07-09 12:00:00 19.9 7.4 12.8--- 4410.0wxwxwx9wx14--1012.2 998.5 -1.1---------
2019-07-09 11:00:00 20.2 8.4 13.4--- 4710.0wxwxwx9wx---1012.6 998.9 -0.9---------
2019-07-09 10:00:00 16.4 9.7 12.3--- 6510.0wxwxwx9wx---1013.2 999.4 0.0---------
2019-07-09 09:00:00 15.7 10.1 12.2--- 6910.0wxwxwx8wx---1013.6 999.6 0.5---------
2019-07-09 08:00:00 14.0 10.6 11.8--- 8010.0wxwxwx7wx---1013.7 999.7 0.7---------
2019-07-09 07:00:00 14.2 10.0 11.5--- 7610.0wxwxwx9wx---1013.3 999.3 0.3---------
2019-07-09 06:00:00 14.3 9.5 11.3--- 7310.0wxwxwx8wx---1013.0 999.1 0.1---------
2019-07-09 05:00:00 12.8 8.9 10.3--- 7710.0wxwxwxwx6wx---1012.9 998.9 0.1---------
2019-07-09 04:00:00 11.9 8.4 9.7--- 7910.0wx-wx5wx---1013.1 999.0 0.0---------
2019-07-09 03:00:00 11.3 7.9 9.1--- 8010.0wx-wx4wx---1013.0 999.0 -0.1---------
2019-07-09 02:00:00 11.1 8.0 9.1--- 8110.0wx-wx3wx---1013.0 998.9 -0.2---------
2019-07-09 01:00:00 10.8 7.9 8.9--- 8210.0wx-wx6wx---1013.1 999.0 -0.3---------
2019-07-09 00:00:00 10.0 7.1 8.1--- 8210.0wx-wx3wx---1013.3 999.1 -0.4---------
1.8 ms

 

Print Friendly, PDF & Email